| time (UTC) | temp F | wind direction | speed knots | gust knots | rain 1hr in | rain 24hr in | rain mn in | humidity % | barometer mb |
| 20260906164250 | 97 | 73 | 3.5 | 4.3 | 0.00 | 0.00 | 0.00 | 50 | 1016.3 |
| 20260906163746 | 96 | 94 | 2.6 | 2.6 | 0.00 | 0.00 | 0.00 | 50 | 1016.3 |
| 20260906163242 | 95 | 151 | 0.0 | 0.0 | 0.00 | 0.00 | 0.00 | 51 | 1016.2 |
| 20260906162739 | 95 | 70 | 2.6 | 2.6 | 0.00 | 0.00 | 0.00 | 52 | 1016.3 |
| 20260906162234 | 94 | 74 | 3.5 | 4.3 | 0.00 | 0.00 | 0.00 | 54 | 1016.6 |
| 20260906161733 | 95 | 140 | 0.9 | 1.7 | 0.00 | 0.00 | 0.00 | 51 | 1016.5 |
| 20260906161233 | 95 | 110 | 2.6 | 2.6 | 0.00 | 0.00 | 0.00 | 51 | 1016.5 |
| 20260906160732 | 95 | 144 | 0.9 | 2.6 | 0.00 | 0.00 | 0.00 | 53 | 1016.3 |
| 20260906160226 | 95 | 66 | 2.6 | 2.6 | 0.00 | 0.00 | 0.00 | 52 | 1016.6 |
| 20260906155723 | 95 | 16 | 2.6 | 2.6 | 0.00 | 0.00 | 0.00 | 54 | 1016.8 |
| 20260906155218 | 96 | 104 | 0.9 | 0.9 | 0.00 | 0.00 | 0.00 | 51 | 1016.6 |
| 20260906154714 | 95 | 97 | 1.7 | 1.7 | 0.00 | 0.00 | 0.00 | 51 | 1016.3 |
| 20260906154209 | 95 | 105 | 0.9 | 1.7 | 0.00 | 0.00 | 0.00 | 52 | 1016.7 |
| 20260906153707 | 94 | 163 | 0.9 | 1.7 | 0.00 | 0.00 | 0.00 | 51 | 1016.7 |
| 20260906153202 | 94 | 92 | 1.7 | 1.7 | 0.00 | 0.00 | 0.00 | 51 | 1016.6 |
| 20260906152657 | 93 | 338 | 1.7 | 2.6 | 0.00 | 0.00 | 0.00 | 52 | 1016.8 |
| 20260906152157 | 93 | 120 | 0.9 | 0.9 | 0.00 | 0.00 | 0.00 | 53 | 1016.5 |
| 20260906151651 | 93 | 108 | 0.9 | 0.9 | 0.00 | 0.00 | 0.00 | 54 | 1016.6 |
| 20260906151148 | 93 | 145 | 1.7 | 1.7 | 0.00 | 0.00 | 0.00 | 57 | 1016.6 |
| 20260906150643 | 93 | 149 | 0.9 | 0.9 | 0.00 | 0.00 | 0.00 | 57 | 1016.3 |
| 20260906150138 | 94 | 101 | 1.7 | 1.7 | 0.00 | 0.00 | 0.00 | 56 | 1016.6 |
| 20260906145637 | 93 | 109 | 0.0 | 0.0 | 0.00 | 0.00 | 0.00 | 59 | 1016.1 |
| 20260906145132 | 91 | 127 | 0.9 | 1.7 | 0.00 | 0.00 | 0.00 | 60 | 1016.3 |
| 20260906144631 | 91 | 169 | 0.9 | 1.7 | 0.00 | 0.00 | 0.00 | 61 | 1016.2 |
| 20260906144127 | 91 | 145 | 0.0 | 0.9 | 0.00 | 0.00 | 0.00 | 61 | 1016.2 |
| 20260906143626 | 91 | 147 | 0.0 | 0.0 | 0.00 | 0.00 | 0.00 | 62 | 1016.6 |
| 20260906143124 | 90 | 105 | 0.9 | 0.9 | 0.00 | 0.00 | 0.00 | 63 | 1016.2 |
| 20260906142622 | 89 | 127 | 0.9 | 0.9 | 0.00 | 0.00 | 0.00 | 63 | 1016.3 |
| 20260906142118 | 88 | 124 | 0.0 | 0.9 | 0.00 | 0.00 | 0.00 | 66 | 1016.5 |
| 20260906141617 | 87 | 125 | 0.9 | 0.9 | 0.00 | 0.00 | 0.00 | 66 | 1016.5 |
| 20260906141112 | 86 | 116 | 0.9 | 1.7 | 0.00 | 0.00 | 0.00 | 67 | 1016.5 |
| 20260906140611 | 87 | 88 | 1.7 | 1.7 | 0.00 | 0.00 | 0.00 | 66 | 1016.5 |
| 20260906140106 | 87 | 119 | 0.0 | 0.9 | 0.00 | 0.00 | 0.00 | 65 | 1016.5 |
| 20260906135603 | 86 | 122 | 0.9 | 0.9 | 0.00 | 0.00 | 0.00 | 67 | 1016.3 |
| 20260906135059 | 85 | 137 | 0.0 | 0.0 | 0.00 | 0.00 | 0.00 | 72 | 1016.3 |
| 20260906134554 | 84 | 129 | 0.0 | 0.0 | 0.00 | 0.00 | 0.00 | 73 | 1016.2 |
| 20260906134055 | 83 | 136 | 0.0 | 0.9 | 0.00 | 0.00 | 0.00 | 74 | 1016.2 |
| 20260906133550 | 83 | 138 | 0.9 | 1.7 | 0.00 | 0.00 | 0.00 | 73 | 1016.3 |
| 20260906133045 | 85 | 113 | 0.9 | 1.7 | 0.00 | 0.00 | 0.00 | 72 | 1016.2 |
| 20260906132540 | 84 | 118 | 0.0 | 0.0 | 0.00 | 0.00 | 0.00 | 74 | 1016.3 |
| 20260906132036 | 83 | 139 | 0.0 | 0.0 | 0.00 | 0.00 | 0.00 | 77 | 1015.9 |
| 20260906131531 | 82 | 143 | 0.0 | 0.0 | 0.00 | 0.00 | 0.00 | 79 | 1016.2 |
| 20260906131026 | 81 | 142 | 0.0 | 0.0 | 0.00 | 0.00 | 0.00 | 82 | 1016.0 |
| 20260906130526 | 80 | 140 | 0.0 | 0.0 | 0.00 | 0.00 | 0.00 | 86 | 1016.2 |
| 20260906130021 | 78 | 140 | 0.0 | 0.0 | 0.00 | 0.00 | 0.00 | 89 | 1016.0 |
| 20260906125518 | 77 | 139 | 0.0 | 0.0 | 0.00 | 0.00 | 0.00 | 90 | 1016.0 |
| 20260906125013 | 75 | 136 | 0.0 | 0.0 | 0.00 | 0.00 | 0.00 | 91 | 1015.5 |
| 20260906124509 | 74 | 146 | 0.0 | 0.0 | 0.00 | 0.00 | 0.00 | 90 | 1015.7 |
| 20260906124004 | 74 | 145 | 0.0 | 0.0 | 0.00 | 0.00 | 0.00 | 91 | 1015.5 |
| 20260906123502 | 73 | 141 | 0.0 | 0.0 | 0.00 | 0.00 | 0.00 | 93 | 1015.8 |
| 20260906122956 | 73 | 139 | 0.0 | 0.0 | 0.00 | 0.00 | 0.00 | 94 | 1015.4 |
| 20260906122451 | 72 | 138 | 0.0 | 0.0 | 0.00 | 0.00 | 0.00 | 95 | 1015.2 |
| 20260906121948 | 71 | 138 | 0.0 | 0.0 | 0.00 | 0.00 | 0.00 | 96 | 1015.5 |
| 20260906121444 | 70 | 141 | 0.0 | 0.0 | 0.00 | 0.00 | 0.00 | 96 | 1015.6 |
| 20260906120940 | 70 | 136 | 0.0 | 0.0 | 0.00 | 0.00 | 0.00 | 95 | 1015.3 |
| 20260906120435 | 70 | 139 | 0.0 | 0.0 | 0.00 | 0.00 | 0.00 | 95 | 1015.4 |
| 20260906115931 | 70 | 134 | 0.0 | 0.0 | 0.00 | 0.00 | 0.00 | 95 | 1015.4 |
| 20260906115427 | 70 | 142 | 0.0 | 0.0 | 0.00 | 0.00 | 0.00 | 95 | 1015.1 |
| 20260906114926 | 70 | 139 | 0.0 | 0.0 | 0.00 | 0.00 | 0.00 | 95 | 1014.8 |
| 20260906114421 | 70 | 138 | 0.9 | 0.9 | 0.00 | 0.00 | 0.00 | 95 | 1015.1 |
| 20260906113917 | 70 | 141 | 0.0 | 0.9 | 0.00 | 0.00 | 0.00 | 95 | 1015.2 |
| 20260906113415 | 70 | 147 | 0.9 | 0.9 | 0.00 | 0.00 | 0.00 | 95 | 1015.3 |
| 20260906112911 | 70 | 122 | 0.9 | 0.9 | 0.00 | 0.00 | 0.00 | 95 | 1015.0 |
| 20260906112407 | 70 | 134 | 0.0 | 0.0 | 0.00 | 0.00 | 0.00 | 95 | 1015.1 |
| 20260906111902 | 70 | 145 | 0.0 | 0.9 | 0.00 | 0.00 | 0.00 | 95 | 1014.9 |
| 20260906111401 | 70 | 133 | 1.7 | 1.7 | 0.00 | 0.00 | 0.00 | 95 | 1014.8 |
| 20260906110856 | 70 | 134 | 0.9 | 0.9 | 0.00 | 0.00 | 0.00 | 95 | 1015.0 |
| 20260906110352 | 70 | 129 | 0.9 | 0.9 | 0.00 | 0.00 | 0.00 | 95 | 1014.7 |
| 20260906105850 | 70 | 128 | 0.0 | 0.9 | 0.00 | 0.00 | 0.00 | 94 | 1014.9 |
| 20260906105347 | 70 | 139 | 0.0 | 0.0 | 0.00 | 0.00 | 0.00 | 94 | 1014.9 |
| 20260906104842 | 70 | 142 | 0.0 | 0.0 | 0.00 | 0.00 | 0.00 | 93 | 1015.0 |
| 20260906104341 | 70 | 141 | 0.0 | 0.0 | 0.00 | 0.00 | 0.00 | 93 | 1014.9 |
| 20260906103839 | 70 | 139 | 0.0 | 0.0 | 0.00 | 0.00 | 0.00 | 93 | 1014.9 |
| 20260906103338 | 70 | 141 | 0.0 | 0.0 | 0.00 | 0.00 | 0.00 | 93 | 1014.9 |
| 20260906102834 | 70 | 138 | 0.0 | 0.0 | 0.00 | 0.00 | 0.00 | 93 | 1014.9 |
| 20260906102333 | 70 | 139 | 0.0 | 0.0 | 0.00 | 0.00 | 0.00 | 93 | 1014.7 |
| 20260906101828 | 71 | 139 | 0.0 | 0.0 | 0.00 | 0.00 | 0.00 | 92 | 1014.8 |
| 20260906101323 | 71 | 139 | 0.0 | 0.0 | 0.00 | 0.00 | 0.00 | 92 | 1014.8 |
| 20260906100819 | 71 | 134 | 0.0 | 0.0 | 0.00 | 0.00 | 0.00 | 92 | 1014.9 |
| 20260906100318 | 71 | 139 | 0.0 | 0.0 | 0.00 | 0.00 | 0.00 | 92 | 1014.7 |
| 20260906095813 | 71 | 142 | 0.0 | 0.0 | 0.00 | 0.00 | 0.00 | 92 | 1014.8 |
| 20260906095309 | 71 | 141 | 0.0 | 0.0 | 0.00 | 0.00 | 0.00 | 92 | 1014.8 |
| 20260906094808 | 71 | 134 | 0.0 | 0.0 | 0.00 | 0.00 | 0.00 | 92 | 1014.7 |
| 20260906094303 | 71 | 140 | 0.0 | 0.0 | 0.00 | 0.00 | 0.00 | 92 | 1014.7 |
| 20260906093759 | 71 | 141 | 0.0 | 0.0 | 0.00 | 0.00 | 0.00 | 92 | 1014.8 |
| 20260906093255 | 71 | 145 | 0.0 | 0.0 | 0.00 | 0.00 | 0.00 | 91 | 1014.6 |
| 20260906092749 | 71 | 141 | 0.0 | 0.0 | 0.00 | 0.00 | 0.00 | 91 | 1014.8 |
| 20260906092244 | 71 | 132 | 0.0 | 0.0 | 0.00 | 0.00 | 0.00 | 91 | 1014.6 |
| 20260906091739 | 71 | 147 | 0.0 | 0.0 | 0.00 | 0.00 | 0.00 | 91 | 1014.8 |
| 20260906091236 | 71 | 142 | 0.0 | 0.0 | 0.00 | 0.00 | 0.00 | 90 | 1014.9 |
| 20260906090732 | 72 | 147 | 0.0 | 0.0 | 0.00 | 0.00 | 0.00 | 90 | 1014.6 |
| 20260906090231 | 72 | 149 | 0.0 | 0.0 | 0.00 | 0.00 | 0.00 | 89 | 1014.7 |
| 20260906085731 | 72 | 148 | 0.0 | 0.0 | 0.00 | 0.00 | 0.00 | 89 | 1014.5 |
| 20260906085230 | 72 | 137 | 0.0 | 0.0 | 0.00 | 0.00 | 0.00 | 89 | 1014.5 |
| 20260906084725 | 72 | 139 | 0.0 | 0.0 | 0.00 | 0.00 | 0.00 | 88 | 1014.4 |
| 20260906084224 | 73 | 121 | 0.9 | 0.9 | 0.00 | 0.00 | 0.00 | 88 | 1014.4 |
| 20260906083719 | 73 | 137 | 0.0 | 0.0 | 0.00 | 0.00 | 0.00 | 87 | 1014.3 |
| 20260906083215 | 73 | 132 | 0.0 | 0.0 | 0.00 | 0.00 | 0.00 | 87 | 1014.3 |
| 20260906082710 | 73 | 147 | 0.0 | 0.0 | 0.00 | 0.00 | 0.00 | 87 | 1014.3 |
| 20260906082205 | 73 | 137 | 0.0 | 0.0 | 0.00 | 0.00 | 0.00 | 87 | 1014.5 |
| 20260906081701 | 73 | 137 | 0.0 | 0.0 | 0.00 | 0.00 | 0.00 | 87 | 1014.5 |
| 20260906081156 | 73 | 112 | 0.9 | 0.9 | 0.00 | 0.00 | 0.00 | 86 | 1014.5 |
| 20260906080653 | 73 | 134 | 0.0 | 0.0 | 0.00 | 0.00 | 0.00 | 86 | 1014.6 |
| 20260906080148 | 73 | 137 | 0.9 | 0.9 | 0.00 | 0.00 | 0.00 | 86 | 1014.6 |
| 20260906075648 | 74 | 145 | 0.9 | 0.9 | 0.00 | 0.00 | 0.00 | 85 | 1014.1 |
| 20260906075142 | 74 | 141 | 0.0 | 0.0 | 0.00 | 0.00 | 0.00 | 84 | 1014.5 |
| 20260906074638 | 74 | 131 | 0.0 | 0.9 | 0.00 | 0.00 | 0.00 | 83 | 1014.4 |
| 20260906074137 | 74 | 141 | 0.0 | 0.0 | 0.00 | 0.00 | 0.00 | 82 | 1014.4 |
| 20260906073632 | 75 | 137 | 0.0 | 0.0 | 0.00 | 0.00 | 0.00 | 82 | 1014.3 |
| 20260906073128 | 75 | 138 | 0.0 | 0.0 | 0.00 | 0.00 | 0.00 | 82 | 1014.4 |
| 20260906072622 | 75 | 132 | 0.0 | 0.0 | 0.00 | 0.00 | 0.00 | 82 | 1014.4 |
| 20260906072118 | 76 | 139 | 0.0 | 0.0 | 0.00 | 0.00 | 0.00 | 81 | 1014.3 |
| 20260906071615 | 76 | 138 | 0.0 | 0.0 | 0.00 | 0.00 | 0.00 | 80 | 1014.5 |
| 20260906071109 | 76 | 132 | 0.0 | 0.0 | 0.00 | 0.00 | 0.00 | 79 | 1014.5 |
| 20260906070606 | 77 | 139 | 0.0 | 0.0 | 0.00 | 0.00 | 0.00 | 79 | 1014.5 |
| 20260906070101 | 77 | 128 | 0.9 | 0.9 | 0.00 | 0.00 | 0.00 | 79 | 1014.4 |
| 20260906065600 | 77 | 138 | 0.9 | 0.9 | 0.00 | 0.00 | 0.00 | 79 | 1014.5 |
| 20260906065056 | 77 | 142 | 0.9 | 1.7 | 0.00 | 0.00 | 0.00 | 78 | 1014.7 |
| 20260906064551 | 77 | 115 | 1.7 | 1.7 | 0.00 | 0.00 | 0.00 | 78 | 1014.7 |
| 20260906064040 | 77 | 111 | 0.9 | 0.9 | 0.00 | 0.00 | 0.00 | 79 | 1014.7 |
| 20260906063536 | 77 | 108 | 1.7 | 1.7 | 0.00 | 0.00 | 0.00 | 80 | 1014.7 |
| 20260906063032 | 77 | 123 | 0.9 | 1.7 | 0.00 | 0.00 | 0.00 | 80 | 1014.7 |
| 20260906062527 | 77 | 143 | 0.9 | 1.7 | 0.00 | 0.00 | 0.00 | 79 | 1014.7 |
| 20260906062021 | 77 | 139 | 0.9 | 0.9 | 0.00 | 0.00 | 0.00 | 79 | 1014.7 |
| 20260906061517 | 78 | 140 | 0.9 | 0.9 | 0.00 | 0.00 | 0.00 | 78 | 1015.0 |
| 20260906061016 | 78 | 153 | 0.9 | 0.9 | 0.00 | 0.00 | 0.00 | 76 | 1014.6 |
| 20260906060513 | 78 | 113 | 0.9 | 0.9 | 0.00 | 0.00 | 0.00 | 76 | 1014.6 |
| 20260906060010 | 78 | 119 | 0.9 | 0.9 | 0.00 | 0.00 | 0.00 | 76 | 1014.6 |
| 20260906055505 | 77 | 110 | 1.7 | 1.7 | 0.00 | 0.00 | 0.00 | 77 | 1014.4 |
| 20260906055000 | 77 | 100 | 0.9 | 1.7 | 0.00 | 0.00 | 0.00 | 77 | 1014.9 |
| 20260906054455 | 77 | 141 | 0.0 | 0.0 | 0.00 | 0.00 | 0.00 | 77 | 1014.9 |
| 20260906053950 | 77 | 140 | 0.9 | 0.9 | 0.00 | 0.00 | 0.00 | 78 | 1015.0 |
| 20260906053447 | 77 | 114 | 0.9 | 0.9 | 0.00 | 0.00 | 0.00 | 77 | 1014.6 |
| 20260906052942 | 77 | 143 | 0.0 | 0.0 | 0.00 | 0.00 | 0.00 | 77 | 1014.6 |
| 20260906052438 | 78 | 137 | 0.9 | 0.9 | 0.00 | 0.00 | 0.00 | 77 | 1014.6 |
| 20260906051935 | 78 | 133 | 0.9 | 0.9 | 0.00 | 0.00 | 0.00 | 76 | 1014.8 |
| 20260906051430 | 78 | 126 | 0.9 | 0.9 | 0.00 | 0.00 | 0.00 | 77 | 1014.6 |
| 20260906050926 | 78 | 117 | 0.0 | 0.9 | 0.00 | 0.00 | 0.00 | 77 | 1014.3 |
| 20260906050425 | 78 | 109 | 1.7 | 1.7 | 0.00 | 0.00 | 0.00 | 77 | 1014.4 |
| 20260906045925 | 78 | 123 | 0.9 | 1.7 | 0.00 | 0.00 | 0.00 | 77 | 1014.7 |
| 20260906045423 | 78 | 112 | 0.9 | 0.9 | 0.00 | 0.00 | 0.00 | 77 | 1014.7 |
| 20260906044920 | 78 | 108 | 1.7 | 1.7 | 0.00 | 0.00 | 0.00 | 77 | 1014.5 |
| 20260906044420 | 77 | 134 | 0.9 | 0.9 | 0.00 | 0.00 | 0.00 | 78 | 1014.4 |
| 20260906043915 | 77 | 138 | 0.0 | 0.0 | 0.00 | 0.00 | 0.00 | 78 | 1014.6 |
| 20260906043411 | 78 | 140 | 0.0 | 0.0 | 0.00 | 0.00 | 0.00 | 78 | 1014.7 |
| 20260906042907 | 77 | 104 | 0.9 | 1.7 | 0.00 | 0.00 | 0.00 | 78 | 1014.7 |
| 20260906042406 | 78 | 140 | 0.0 | 0.0 | 0.00 | 0.00 | 0.00 | 78 | 1014.4 |
| 20260906041901 | 77 | 121 | 0.9 | 0.9 | 0.00 | 0.00 | 0.00 | 78 | 1014.5 |
| 20260906041357 | 78 | 129 | 0.0 | 0.0 | 0.00 | 0.00 | 0.00 | 78 | 1014.5 |
| 20260906040857 | 78 | 139 | 0.0 | 0.0 | 0.00 | 0.00 | 0.00 | 77 | 1014.4 |
| 20260906040352 | 78 | 115 | 0.9 | 0.9 | 0.00 | 0.00 | 0.00 | 77 | 1014.7 |
| 20260906035847 | 78 | 124 | 0.9 | 0.9 | 0.00 | 0.00 | 0.00 | 77 | 1014.6 |
| 20260906035343 | 78 | 132 | 0.0 | 0.0 | 0.00 | 0.00 | 0.00 | 76 | 1014.6 |
| 20260906034838 | 78 | 137 | 0.9 | 0.9 | 0.00 | 0.00 | 0.00 | 75 | 1014.4 |
| 20260906034333 | 79 | 140 | 0.0 | 0.0 | 0.00 | 0.00 | 0.00 | 74 | 1014.5 |
| 20260906033829 | 79 | 139 | 0.0 | 0.0 | 0.00 | 0.00 | 0.00 | 74 | 1014.4 |
| 20260906033328 | 80 | 128 | 0.9 | 0.9 | 0.00 | 0.00 | 0.00 | 73 | 1014.4 |
| 20260906032824 | 80 | 119 | 0.9 | 0.9 | 0.00 | 0.00 | 0.00 | 72 | 1014.6 |
| 20260906032320 | 80 | 132 | 0.0 | 0.9 | 0.00 | 0.00 | 0.00 | 72 | 1014.6 |
| 20260906031815 | 80 | 119 | 0.9 | 0.9 | 0.00 | 0.00 | 0.00 | 72 | 1014.4 |
| 20260906031311 | 80 | 131 | 0.9 | 0.9 | 0.00 | 0.00 | 0.00 | 72 | 1014.4 |
| 20260906030810 | 80 | 126 | 0.9 | 0.9 | 0.00 | 0.00 | 0.00 | 72 | 1014.6 |
| 20260906030305 | 80 | 124 | 1.7 | 1.7 | 0.00 | 0.00 | 0.00 | 72 | 1014.5 |
| 20260906025805 | 80 | 135 | 0.9 | 0.9 | 0.00 | 0.00 | 0.00 | 73 | 1014.6 |
| 20260906025259 | 80 | 138 | 0.0 | 0.9 | 0.00 | 0.00 | 0.00 | 73 | 1014.3 |
| 20260906024758 | 80 | 135 | 0.0 | 0.0 | 0.00 | 0.00 | 0.00 | 73 | 1014.5 |
| 20260906024257 | 80 | 127 | 0.0 | 0.0 | 0.00 | 0.00 | 0.00 | 72 | 1014.4 |
| 20260906023753 | 80 | 120 | 0.9 | 0.9 | 0.00 | 0.00 | 0.00 | 72 | 1014.3 |
| 20260906023248 | 81 | 136 | 0.0 | 0.0 | 0.00 | 0.00 | 0.00 | 72 | 1014.2 |
| 20260906022744 | 81 | 131 | 0.9 | 1.7 | 0.00 | 0.00 | 0.00 | 71 | 1014.1 |
| 20260906022239 | 81 | 115 | 0.9 | 0.9 | 0.00 | 0.00 | 0.00 | 71 | 1014.1 |
| 20260906021735 | 82 | 137 | 0.0 | 0.9 | 0.00 | 0.00 | 0.00 | 70 | 1014.2 |
| 20260906021234 | 82 | 127 | 0.9 | 0.9 | 0.00 | 0.00 | 0.00 | 69 | 1014.0 |
| 20260906020729 | 83 | 128 | 0.9 | 0.9 | 0.00 | 0.00 | 0.00 | 67 | 1013.7 |
| 20260906020223 | 83 | 129 | 0.9 | 1.7 | 0.00 | 0.00 | 0.00 | 67 | 1013.9 |
| 20260906015723 | 83 | 135 | 0.9 | 0.9 | 0.00 | 0.00 | 0.00 | 67 | 1013.5 |
| 20260906015222 | 83 | 124 | 0.9 | 0.9 | 0.00 | 0.00 | 0.00 | 67 | 1013.6 |
| 20260906014716 | 83 | 122 | 1.7 | 1.7 | 0.00 | 0.00 | 0.00 | 67 | 1013.4 |
| 20260906014212 | 83 | 131 | 0.0 | 0.0 | 0.00 | 0.00 | 0.00 | 67 | 1013.3 |
| 20260906013703 | 83 | 139 | 0.0 | 0.0 | 0.00 | 0.00 | 0.00 | 68 | 1013.3 |
| 20260906013203 | 83 | 132 | 0.9 | 0.9 | 0.00 | 0.00 | 0.00 | 69 | 1013.4 |
| 20260906012658 | 83 | 125 | 0.0 | 0.0 | 0.00 | 0.00 | 0.00 | 69 | 1013.3 |
| 20260906012157 | 84 | 125 | 0.0 | 0.0 | 0.00 | 0.00 | 0.00 | 69 | 1013.3 |
| 20260906011654 | 84 | 131 | 0.0 | 0.0 | 0.00 | 0.00 | 0.00 | 67 | 1013.4 |
| 20260906011148 | 84 | 139 | 0.0 | 0.0 | 0.00 | 0.00 | 0.00 | 68 | 1013.2 |
| 20260906010643 | 85 | 135 | 0.0 | 0.0 | 0.00 | 0.00 | 0.00 | 68 | 1013.2 |
| 20260906010140 | 86 | 133 | 0.0 | 0.0 | 0.00 | 0.00 | 0.00 | 67 | 1013.2 |
| 20260906005639 | 86 | 141 | 0.0 | 0.0 | 0.00 | 0.00 | 0.00 | 65 | 1013.5 |
| 20260906005138 | 87 | 140 | 0.0 | 0.0 | 0.00 | 0.00 | 0.00 | 65 | 1013.0 |
| 20260906004637 | 87 | 137 | 0.0 | 0.0 | 0.00 | 0.00 | 0.00 | 63 | 1013.3 |
| 20260906004133 | 88 | 134 | 0.9 | 0.9 | 0.00 | 0.00 | 0.00 | 62 | 1013.0 |
| 20260906003628 | 88 | 136 | 0.0 | 0.0 | 0.00 | 0.00 | 0.00 | 62 | 1013.2 |
| 20260906003124 | 88 | 127 | 0.9 | 0.9 | 0.00 | 0.00 | 0.00 | 63 | 1013.3 |
| 20260906002618 | 89 | 94 | 0.0 | 0.9 | 0.00 | 0.00 | 0.00 | 63 | 1013.1 |
| 20260906002108 | 90 | 125 | 0.9 | 0.9 | 0.00 | 0.00 | 0.00 | 62 | 1013.0 |
| 20260906001603 | 91 | 133 | 0.0 | 0.0 | 0.00 | 0.00 | 0.00 | 60 | 1012.7 |
| 20260906001103 | 93 | 132 | 0.0 | 0.0 | 0.00 | 0.00 | 0.00 | 57 | 1012.8 |
| 20260906000559 | 95 | 143 | 0.0 | 0.0 | 0.00 | 0.00 | 0.00 | 54 | 1012.9 |
| 20260906000054 | 96 | 138 | 0.0 | 0.0 | 0.00 | 0.00 | 0.00 | 52 | 1013.0 |
| 20260905235553 | 97 | 145 | 0.0 | 0.0 | 0.00 | 0.00 | 0.00 | 51 | 1013.1 |
| 20260905235048 | 99 | 133 | 0.0 | 0.0 | 0.00 | 0.00 | 0.00 | 49 | 1012.9 |
| 20260905234543 | 100 | 143 | 0.0 | 0.0 | 0.00 | 0.00 | 0.00 | 46 | 1013.0 |
| 20260905234038 | 100 | 143 | 0.0 | 0.0 | 0.00 | 0.00 | 0.00 | 47 | 1013.0 |
| 20260905233532 | 101 | 134 | 0.0 | 0.9 | 0.00 | 0.00 | 0.00 | 45 | 1013.0 |
| 20260905233032 | 102 | 146 | 0.0 | 0.0 | 0.00 | 0.00 | 0.00 | 45 | 1013.0 |
| 20260905232528 | 102 | 133 | 0.0 | 0.9 | 0.00 | 0.00 | 0.00 | 44 | 1013.0 |
| 20260905232024 | 102 | 154 | 0.0 | 0.0 | 0.00 | 0.00 | 0.00 | 40 | 1013.1 |
| 20260905231519 | 101 | 152 | 0.0 | 0.9 | 0.00 | 0.00 | 0.00 | 42 | 1013.0 |
| 20260905231015 | 102 | 135 | 0.0 | 0.9 | 0.00 | 0.00 | 0.00 | 41 | 1013.1 |
| 20260905230514 | 102 | 114 | 1.7 | 1.7 | 0.00 | 0.00 | 0.00 | 40 | 1012.9 |
| 20260905230013 | 102 | 147 | 0.9 | 0.9 | 0.00 | 0.00 | 0.00 | 40 | 1012.8 |
| 20260905225507 | 102 | 175 | 0.9 | 0.9 | 0.00 | 0.00 | 0.00 | 40 | 1013.0 |
| 20260905225003 | 101 | 112 | 1.7 | 1.7 | 0.00 | 0.00 | 0.00 | 39 | 1012.9 |
| 20260905224458 | 101 | 37 | 2.6 | 2.6 | 0.00 | 0.00 | 0.00 | 39 | 1012.6 |
| 20260905223956 | 101 | 201 | 0.9 | 1.7 | 0.00 | 0.00 | 0.00 | 40 | 1012.6 |
| 20260905223454 | 101 | 113 | 0.9 | 0.9 | 0.00 | 0.00 | 0.00 | 40 | 1012.8 |
| 20260905222949 | 100 | 203 | 1.7 | 1.7 | 0.00 | 0.00 | 0.00 | 40 | 1012.7 |
| 20260905222443 | 100 | 143 | 0.9 | 0.9 | 0.00 | 0.00 | 0.00 | 40 | 1012.7 |
| 20260905221939 | 101 | 101 | 1.7 | 1.7 | 0.00 | 0.00 | 0.00 | 41 | 1012.8 |
| 20260905221436 | 102 | 276 | 1.7 | 1.7 | 0.00 | 0.00 | 0.00 | 39 | 1013.0 |
| 20260905220932 | 102 | 104 | 0.9 | 1.7 | 0.00 | 0.00 | 0.00 | 39 | 1012.9 |
| 20260905220428 | 103 | 136 | 0.9 | 1.7 | 0.00 | 0.00 | 0.00 | 37 | 1013.2 |
| 20260905215927 | 103 | 146 | 1.7 | 1.7 | 0.00 | 0.00 | 0.00 | 36 | 1012.9 |
| 20260905215422 | 102 | 137 | 0.9 | 0.9 | 0.00 | 0.00 | 0.00 | 38 | 1013.2 |
| 20260905214919 | 102 | 135 | 0.9 | 1.7 | 0.00 | 0.00 | 0.00 | 38 | 1013.0 |
| 20260905214414 | 101 | 89 | 1.7 | 2.6 | 0.00 | 0.00 | 0.00 | 38 | 1013.1 |
| 20260905213914 | 101 | 133 | 2.6 | 5.2 | 0.00 | 0.00 | 0.00 | 39 | 1013.1 |
| 20260905213410 | 102 | 150 | 0.9 | 0.9 | 0.00 | 0.00 | 0.00 | 37 | 1013.2 |
| 20260905212905 | 101 | 130 | 0.9 | 1.7 | 0.00 | 0.00 | 0.00 | 38 | 1013.0 |
| 20260905212400 | 101 | 174 | 0.9 | 0.9 | 0.00 | 0.00 | 0.00 | 40 | 1013.2 |
| 20260905211859 | 100 | 195 | 1.7 | 1.7 | 0.00 | 0.00 | 0.00 | 40 | 1013.3 |
| 20260905211355 | 102 | 124 | 3.5 | 4.3 | 0.00 | 0.00 | 0.00 | 39 | 1013.5 |
| 20260905210851 | 101 | 197 | 0.0 | 0.9 | 0.00 | 0.00 | 0.00 | 38 | 1013.4 |
| 20260905210351 | 101 | 164 | 1.7 | 1.7 | 0.00 | 0.00 | 0.00 | 39 | 1013.9 |
| 20260905205850 | 102 | 153 | 0.0 | 0.9 | 0.00 | 0.00 | 0.00 | 41 | 1013.9 |
| 20260905205345 | 101 | 147 | 0.9 | 0.9 | 0.00 | 0.00 | 0.00 | 40 | 1013.7 |
| 20260905204844 | 101 | 139 | 0.9 | 1.7 | 0.00 | 0.00 | 0.00 | 40 | 1013.6 |
| 20260905204341 | 102 | 79 | 2.6 | 4.3 | 0.00 | 0.00 | 0.00 | 39 | 1013.9 |
| 20260905203839 | 101 | 168 | 1.7 | 1.7 | 0.00 | 0.00 | 0.00 | 40 | 1014.1 |
| 20260905203335 | 103 | 79 | 1.7 | 2.6 | 0.00 | 0.00 | 0.00 | 39 | 1014.0 |
| 20260905202831 | 103 | 63 | 1.7 | 1.7 | 0.00 | 0.00 | 0.00 | 38 | 1014.1 |
| 20260905202325 | 102 | 119 | 0.9 | 0.9 | 0.00 | 0.00 | 0.00 | 39 | 1014.1 |
| 20260905201821 | 101 | 158 | 0.0 | 0.0 | 0.00 | 0.00 | 0.00 | 41 | 1014.3 |
| 20260905201316 | 101 | 165 | 0.9 | 1.7 | 0.00 | 0.00 | 0.00 | 41 | 1014.3 |
| 20260905200811 | 102 | 79 | 3.5 | 4.3 | 0.00 | 0.00 | 0.00 | 40 | 1014.4 |
| 20260905200307 | 101 | 102 | 2.6 | 4.3 | 0.00 | 0.00 | 0.00 | 39 | 1014.5 |
| 20260905195804 | 101 | 138 | 1.7 | 2.6 | 0.00 | 0.00 | 0.00 | 40 | 1014.5 |
| 20260905195300 | 101 | 102 | 1.7 | 1.7 | 0.00 | 0.00 | 0.00 | 41 | 1014.5 |
| 20260905194755 | 100 | 166 | 0.9 | 0.9 | 0.00 | 0.00 | 0.00 | 43 | 1014.9 |
| 20260905194255 | 100 | 139 | 1.7 | 1.7 | 0.00 | 0.00 | 0.00 | 42 | 1014.6 |
| 20260905193754 | 99 | 158 | 0.9 | 0.9 | 0.00 | 0.00 | 0.00 | 44 | 1014.6 |
| 20260905193249 | 100 | 116 | 0.9 | 1.7 | 0.00 | 0.00 | 0.00 | 42 | 1015.0 |
| 20260905192744 | 99 | 119 | 2.6 | 2.6 | 0.00 | 0.00 | 0.00 | 44 | 1014.8 |
| 20260905192241 | 96 | 159 | 0.0 | 0.0 | 0.00 | 0.00 | 0.00 | 46 | 1015.0 |
| 20260905191740 | 96 | 158 | 0.9 | 0.9 | 0.00 | 0.00 | 0.00 | 48 | 1015.1 |
| 20260905191238 | 97 | 110 | 1.7 | 1.7 | 0.00 | 0.00 | 0.00 | 47 | 1015.1 |
| 20260905190737 | 98 | 137 | 1.7 | 1.7 | 0.00 | 0.00 | 0.00 | 47 | 1015.2 |
| 20260905190236 | 99 | 97 | 2.6 | 4.3 | 0.00 | 0.00 | 0.00 | 45 | 1015.2 |
| 20260905185735 | 99 | 85 | 2.6 | 2.6 | 0.00 | 0.00 | 0.00 | 45 | 1015.2 |
| 20260905185230 | 99 | 197 | 1.7 | 1.7 | 0.00 | 0.00 | 0.00 | 45 | 1015.4 |
| 20260905184725 | 99 | 166 | 0.9 | 0.9 | 0.00 | 0.00 | 0.00 | 44 | 1015.6 |
| 20260905184224 | 99 | 210 | 2.6 | 2.6 | 0.00 | 0.00 | 0.00 | 44 | 1015.6 |
| 20260905183723 | 99 | 356 | 2.6 | 4.3 | 0.00 | 0.00 | 0.00 | 43 | 1015.7 |
| 20260905183219 | 98 | 80 | 0.9 | 1.7 | 0.00 | 0.00 | 0.00 | 46 | 1015.7 |
| 20260905182713 | 98 | 124 | 0.9 | 0.9 | 0.00 | 0.00 | 0.00 | 46 | 1015.6 |
| 20260905182213 | 99 | 212 | 2.6 | 2.6 | 0.00 | 0.00 | 0.00 | 43 | 1015.9 |
| 20260905181708 | 98 | 162 | 0.0 | 0.0 | 0.00 | 0.00 | 0.00 | 44 | 1016.0 |
| 20260905181207 | 98 | 310 | 2.6 | 4.3 | 0.00 | 0.00 | 0.00 | 44 | 1015.9 |
| 20260905180701 | 98 | 120 | 1.7 | 2.6 | 0.00 | 0.00 | 0.00 | 44 | 1016.1 |
| 20260905180157 | 98 | 155 | 1.7 | 1.7 | 0.00 | 0.00 | 0.00 | 46 | 1016.2 |
| 20260905175656 | 98 | 111 | 0.9 | 1.7 | 0.00 | 0.00 | 0.00 | 45 | 1016.0 |
| 20260905175151 | 98 | 192 | 1.7 | 1.7 | 0.00 | 0.00 | 0.00 | 46 | 1016.2 |
| 20260905174647 | 97 | 142 | 0.9 | 0.9 | 0.00 | 0.00 | 0.00 | 49 | 1016.1 |
| 20260905174142 | 96 | 104 | 2.6 | 4.3 | 0.00 | 0.00 | 0.00 | 48 | 1016.1 |
| 20260905173638 | 97 | 82 | 7.0 | 7.8 | 0.00 | 0.00 | 0.00 | 47 | 1016.3 |
| 20260905173134 | 97 | 102 | 1.7 | 2.6 | 0.00 | 0.00 | 0.00 | 48 | 1016.3 |
| 20260905172632 | 97 | 344 | 4.3 | 6.1 | 0.00 | 0.00 | 0.00 | 48 | 1016.2 |
| 20260905172128 | 97 | 150 | 0.9 | 0.9 | 0.00 | 0.00 | 0.00 | 49 | 1016.3 |
| 20260905171624 | 96 | 146 | 0.9 | 0.9 | 0.00 | 0.00 | 0.00 | 50 | 1016.6 |
| 20260905171120 | 96 | 227 | 0.9 | 0.9 | 0.00 | 0.00 | 0.00 | 50 | 1016.8 |
| 20260905170616 | 96 | 65 | 0.9 | 1.7 | 0.00 | 0.00 | 0.00 | 51 | 1016.7 |
| 20260905170111 | 96 | 114 | 0.9 | 0.9 | 0.00 | 0.00 | 0.00 | 52 | 1016.9 |
| 20260905165605 | 96 | 86 | 1.7 | 2.6 | 0.00 | 0.00 | 0.00 | 52 | 1016.9 |
| 20260905165101 | 96 | 168 | 3.5 | 5.2 | 0.00 | 0.00 | 0.00 | 50 | 1017.0 |